Terminal Aerodrome Forecast
Issued by NWS Boston, MA

Home | Current Version | Previous Version | Text Only | Print | Product List | Glossary On
Versions: 1 2 3 4 5 6 7 8 9 10 11 12 13 14 15 16 17 18 19 20 21 22 23 24 25 26 27 28 29 30 31 32 33 34 35 36 37 38 39 40 41 42 43 44
000
FTUS41 KBOX 292320
TAFBOS
TAF
KBOS 292320Z 3000/3106 06008KT P6SM FEW004 OVC007
     FM300500 11004KT 2SM BR VCSH OVC003
     FM300800 17005KT 2SM BR VCSH OVC003
     FM301000 19004KT 2SM -SHRA BR OVC003
     FM301800 22008KT 5SM -SHRA BR OVC015
     FM302200 22008KT P6SM VCSH OVC050
     FM310100 22008KT P6SM BKN120=

USA.gov is the U.S. government's official web portal to all federal, state and local government web resources and services.